Time;durP1;ratioP1;P1;durP2;ratioP2;P2;SDS_P1;SDS_P2;PMS_P1;PMS_P2;Temp;Humidity;BMP_temperature;BMP_pressure;BME280_temperature;BME280_humidity;BME280_pressure;Samples;Min_cycle;Max_cycle;Signal;HPM_P1;HPM_P2
2022/08/03 00:00:48;;;;;;;4.80;2.65;;;;;;;20.02;67.78;96386.00;5051934;28;20459;-80
2022/08/03 00:03:14;;;;;;;4.13;2.10;;;;;;;19.97;67.61;96393.84;5051950;28;20045;-79
2022/08/03 00:05:41;;;;;;;3.25;1.85;;;;;;;19.91;67.19;96385.09;5052310;28;20045;-79
2022/08/03 00:08:07;;;;;;;3.42;2.33;;;;;;;19.88;67.67;96385.03;5051585;28;20045;-78
2022/08/03 00:10:34;;;;;;;6.05;2.42;;;;;;;19.80;68.33;96387.72;5052622;28;20052;-79
2022/08/03 00:13:00;;;;;;;3.58;2.33;;;;;;;19.79;68.09;96382.59;5054063;28;20049;-80
2022/08/03 00:15:27;;;;;;;5.28;2.80;;;;;;;19.73;67.94;96386.84;5052646;28;20056;-80
2022/08/03 00:17:54;;;;;;;4.80;2.70;;;;;;;19.66;67.59;96386.75;5052750;28;20044;-79
2022/08/03 00:20:21;;;;;;;5.20;2.65;;;;;;;19.61;68.18;96378.81;5048997;28;20045;-79
2022/08/03 00:22:48;;;;;;;4.38;2.10;;;;;;;19.61;68.35;96378.81;5051989;28;20530;-81
2022/08/03 00:25:15;;;;;;;3.25;2.00;;;;;;;19.72;68.21;96386.03;5051739;28;20045;-80
2022/08/03 00:27:44;;;;;;;2.97;2.00;;;;;;;19.68;67.94;96384.41;5052380;28;20049;-79
2022/08/03 00:30:11;;;;;;;4.82;2.13;;;;;;;19.54;68.42;96377.53;5051470;28;20064;-82
2022/08/03 00:32:37;;;;;;;3.13;2.00;;;;;;;19.47;68.78;96382.16;5052860;28;20120;-82
2022/08/03 00:35:06;;;;;;;4.95;2.40;;;;;;;19.47;68.99;96377.44;5051731;28;20455;-79
2022/08/03 00:37:33;;;;;;;4.28;2.50;;;;;;;19.44;69.12;96378.19;5052173;28;20049;-81
2022/08/03 00:40:00;;;;;;;4.07;2.40;;;;;;;19.46;69.49;96375.81;5052266;28;20048;-81
2022/08/03 00:42:26;;;;;;;5.90;2.58;;;;;;;19.44;69.27;96366.34;5052113;28;20048;-80
2022/08/03 00:44:52;;;;;;;2.95;2.03;;;;;;;19.44;69.08;96369.91;5051695;28;20535;-81
2022/08/03 00:47:19;;;;;;;5.95;2.15;;;;;;;19.40;69.27;96373.78;5051920;28;20052;-81
2022/08/03 00:49:45;;;;;;;4.45;2.28;;;;;;;19.16;69.80;96375.03;5052715;28;20049;-80
2022/08/03 00:52:15;;;;;;;6.43;2.60;;;;;;;18.92;70.91;96377.06;5050033;28;20052;-81
2022/08/03 00:54:41;;;;;;;4.68;2.22;;;;;;;18.84;70.96;96378.09;5052660;28;20053;-81
2022/08/03 00:57:08;;;;;;;3.78;2.33;;;;;;;18.84;71.16;96378.09;5052741;28;20052;-79
2022/08/03 00:59:43;;;;;;;5.93;2.50;;;;;;;18.72;71.89;96381.09;5053317;28;20071;-81
2022/08/03 01:02:09;;;;;;;5.07;2.58;;;;;;;18.69;71.78;96376.31;5052028;28;20401;-79
2022/08/03 01:04:35;;;;;;;3.72;2.50;;;;;;;18.78;71.54;96379.59;5052496;28;20055;-81
2022/08/03 01:07:09;;;;;;;7.38;2.42;;;;;;;18.81;71.87;96384.38;5051100;28;20044;-80
2022/08/03 01:09:46;;;;;;;3.35;2.05;;;;;;;18.74;72.29;96387.00;5051719;28;20079;-81
2022/08/03 01:12:19;;;;;;;3.42;2.20;;;;;;;18.76;72.06;96381.94;5051571;28;20049;-80
2022/08/03 01:14:51;;;;;;;4.72;2.33;;;;;;;18.70;72.17;96380.66;5052286;28;20045;-80
2022/08/03 01:17:23;;;;;;;3.63;2.38;;;;;;;18.66;72.34;96374.25;5052165;28;20460;-80
2022/08/03 01:19:55;;;;;;;3.97;2.30;;;;;;;18.54;73.35;96368.94;5052463;28;20045;-80
2022/08/03 01:22:44;;;;;;;2.83;2.20;;;;;;;18.59;72.77;96369.44;5050289;28;20063;-79
2022/08/03 01:25:24;;;;;;;6.97;2.80;;;;;;;18.52;72.53;96367.34;5052698;28;20416;-79
2022/08/03 01:28:02;;;;;;;4.47;2.58;;;;;;;18.50;72.58;96358.66;5052667;28;20656;-79
2022/08/03 01:30:32;;;;;;;3.20;2.35;;;;;;;18.57;72.60;96365.44;5051997;28;20056;-79
2022/08/03 01:33:04;;;;;;;3.80;2.58;;;;;;;18.37;73.27;96365.50;5052863;28;20044;-80
2022/08/03 01:35:35;;;;;;;3.50;2.10;;;;;;;18.45;73.22;96355.41;5051485;28;20048;-80
2022/08/03 01:38:05;;;;;;;3.53;2.47;;;;;;;18.39;72.70;96356.88;5052604;28;20041;-76
2022/08/03 01:40:36;;;;;;;5.65;2.60;;;;;;;18.41;72.64;96360.84;5052554;28;20127;-80
2022/08/03 01:43:04;;;;;;;4.07;2.20;;;;;;;18.51;72.59;96363.00;5051716;28;20060;-79
2022/08/03 01:45:34;;;;;;;4.15;2.60;;;;;;;18.34;73.52;96363.50;5051514;28;20052;-80
2022/08/03 01:48:01;;;;;;;5.15;2.10;;;;;;;18.48;72.86;96361.00;5055512;28;20412;-80
2022/08/03 01:50:30;;;;;;;5.22;2.45;;;;;;;18.61;72.54;96363.53;5056153;28;20040;-80
2022/08/03 01:52:58;;;;;;;2.83;2.10;;;;;;;18.56;72.16;96358.34;5055489;28;20440;-81
2022/08/03 01:55:27;;;;;;;3.95;2.00;;;;;;;18.57;72.16;96362.69;5055177;28;20514;-79
2022/08/03 01:57:55;;;;;;;3.13;2.17;;;;;;;18.61;72.52;96358.03;5054583;28;20049;-79
2022/08/03 02:00:23;;;;;;;4.50;2.13;;;;;;;18.66;72.73;96354.97;5055045;28;20041;-80
2022/08/03 02:02:54;;;;;;;3.13;2.15;;;;;;;18.63;71.96;96352.91;5055036;28;20075;-81
2022/08/03 02:05:20;;;;;;;4.00;2.33;;;;;;;18.62;72.03;96359.63;5054539;28;20443;-80
2022/08/03 02:07:48;;;;;;;2.72;2.05;;;;;;;18.62;71.87;96348.59;5055044;28;20412;-81
2022/08/03 02:10:23;;;;;;;3.53;2.58;;;;;;;18.63;72.43;96355.69;5054241;28;20810;-81
2022/08/03 02:12:50;;;;;;;4.45;2.10;;;;;;;18.63;72.28;96355.69;5059526;28;20045;-81
2022/08/03 02:15:19;;;;;;;5.75;1.90;;;;;;;18.62;72.51;96356.84;5056254;28;20072;-80
2022/08/03 02:17:47;;;;;;;6.00;2.22;;;;;;;18.60;72.70;96350.91;5055613;28;20040;-80
2022/08/03 02:20:16;;;;;;;3.10;2.08;;;;;;;18.59;72.58;96350.13;5051980;28;20452;-81
2022/08/03 02:22:43;;;;;;;3.17;2.08;;;;;;;18.52;72.78;96355.50;5047868;28;20447;-80
2022/08/03 02:25:12;;;;;;;3.00;2.30;;;;;;;18.51;73.36;96354.72;5056969;28;20061;-80
2022/08/03 02:27:41;;;;;;;3.38;2.58;;;;;;;18.51;73.74;96349.22;5055713;28;20049;-80
2022/08/03 02:30:10;;;;;;;3.58;2.40;;;;;;;18.55;73.44;96348.47;5055121;28;20044;-79
2022/08/03 02:32:40;;;;;;;3.55;2.50;;;;;;;18.49;73.11;96351.53;5055735;28;20417;-80
2022/08/03 02:35:11;;;;;;;3.95;2.78;;;;;;;18.44;73.19;96349.09;5054150;28;20041;-79
2022/08/03 02:37:43;;;;;;;4.43;2.05;;;;;;;18.38;73.19;96356.09;5054629;28;20503;-80
2022/08/03 02:40:12;;;;;;;3.08;2.47;;;;;;;18.40;73.83;96358.47;5053880;28;20052;-80
2022/08/03 02:42:41;;;;;;;4.05;2.47;;;;;;;18.34;73.25;96360.75;5055143;28;20080;-80
2022/08/03 02:45:12;;;;;;;3.03;2.13;;;;;;;18.30;73.87;96365.41;5054039;28;20052;-80
2022/08/03 02:47:41;;;;;;;3.55;2.13;;;;;;;18.28;74.26;96364.97;5054814;28;20541;-81
2022/08/03 02:50:11;;;;;;;4.25;2.70;;;;;;;18.22;74.58;96358.19;5052059;28;20052;-79
2022/08/03 02:52:38;;;;;;;3.20;2.22;;;;;;;18.26;74.01;96361.78;5035355;28;20057;-81
2022/08/03 02:55:09;;;;;;;3.00;2.35;;;;;;;18.26;73.98;96364.53;5035270;28;20076;-80
2022/08/03 02:57:37;;;;;;;5.97;2.90;;;;;;;18.24;74.04;96364.91;5034760;28;20049;-81
2022/08/03 03:00:05;;;;;;;7.82;2.20;;;;;;;18.24;74.29;96361.34;5033480;28;20050;-80
2022/08/03 03:02:32;;;;;;;3.60;2.17;;;;;;;18.24;73.60;96355.84;5035234;28;20046;-79
2022/08/03 03:05:01;;;;;;;4.55;2.50;;;;;;;18.20;74.01;96357.75;5033870;28;20041;-80
2022/08/03 03:07:28;;;;;;;2.72;2.20;;;;;;;18.16;74.42;96359.63;5035280;28;20052;-82
2022/08/03 03:09:55;;;;;;;3.28;2.30;;;;;;;18.10;74.10;96363.84;5033149;28;20496;-80
2022/08/03 03:12:25;;;;;;;3.13;2.42;;;;;;;17.97;74.21;96364.03;5023385;28;20061;-81
2022/08/03 03:14:52;;;;;;;3.40;2.30;;;;;;;17.98;74.44;96360.13;5034434;28;20045;-79
2022/08/03 03:17:20;;;;;;;4.55;3.20;;;;;;;17.97;74.57;96364.03;5034711;28;20041;-81
2022/08/03 03:19:48;;;;;;;5.95;2.60;;;;;;;17.87;74.31;96363.84;5034527;28;20068;-81
2022/08/03 03:22:16;;;;;;;3.53;2.22;;;;;;;17.83;74.43;96368.47;5052906;28;20048;-79
2022/08/03 03:24:44;;;;;;;4.50;2.47;;;;;;;17.81;74.47;96368.84;5053108;28;20064;-79
2022/08/03 03:27:12;;;;;;;4.50;2.55;;;;;;;17.79;74.43;96360.13;5052920;28;20045;-80
2022/08/03 03:29:40;;;;;;;4.88;2.40;;;;;;;17.70;75.13;96362.31;5055051;28;20650;-80
2022/08/03 03:32:15;;;;;;;5.60;2.40;;;;;;;17.70;75.23;96370.56;5053188;28;20063;-82
2022/08/03 03:34:43;;;;;;;3.60;2.55;;;;;;;17.57;75.74;96371.88;5057455;28;20045;-80
2022/08/03 03:37:10;;;;;;;4.20;2.80;;;;;;;17.50;75.97;96368.97;5053342;28;20048;-81
2022/08/03 03:39:36;;;;;;;2.55;2.17;;;;;;;17.56;76.03;96370.28;5054054;28;20563;-80
2022/08/03 03:42:04;;;;;;;3.72;2.50;;;;;;;17.46;76.15;96366.16;5054026;28;20416;-81
2022/08/03 03:44:31;;;;;;;5.65;2.60;;;;;;;17.51;75.81;96374.13;5053207;28;20049;-81
2022/08/03 03:46:59;;;;;;;4.30;2.40;;;;;;;17.55;75.97;96374.19;5053215;28;20415;-81
2022/08/03 03:49:26;;;;;;;4.15;2.72;;;;;;;17.47;76.35;96368.53;5052430;28;20059;-81
2022/08/03 03:51:53;;;;;;;4.13;2.85;;;;;;;17.41;76.84;96364.47;5053210;28;20053;-80
2022/08/03 03:54:21;;;;;;;6.75;3.78;;;;;;;17.30;76.82;96374.47;5053862;28;20098;-80
2022/08/03 03:56:47;;;;;;;3.92;2.40;;;;;;;17.44;76.65;96369.28;5051348;28;20517;-80
2022/08/03 03:59:14;;;;;;;5.30;3.42;;;;;;;17.47;76.72;96368.53;5053857;28;20045;-81
2022/08/03 04:01:40;;;;;;;4.32;2.60;;;;;;;17.53;76.10;96368.25;5053343;28;20056;-80
2022/08/03 04:12:24;;;;;;;5.22;2.72;;;;;;;17.57;76.98;96371.88;5067468;28;20055;-81
2022/08/03 04:14:54;;;;;;;7.75;2.58;;;;;;;17.56;76.02;96376.59;5072161;28;20041;-80
2022/08/03 04:17:25;;;;;;;4.07;2.70;;;;;;;17.60;76.88;96382.16;5064520;28;20041;-80
2022/08/03 04:19:55;;;;;;;4.40;2.70;;;;;;;17.62;75.88;96385.34;5047594;28;20049;-80
2022/08/03 04:22:25;;;;;;;3.08;2.30;;;;;;;17.63;75.72;96392.44;5053425;28;20071;-79
2022/08/03 04:24:57;;;;;;;6.57;2.42;;;;;;;17.65;75.70;96381.88;5056895;28;20041;-80
2022/08/03 04:27:28;;;;;;;3.95;2.33;;;;;;;17.62;75.99;96388.09;5056410;28;20041;-81
2022/08/03 04:29:56;;;;;;;4.10;2.30;;;;;;;17.61;76.16;96390.06;5056742;28;20053;-79
2022/08/03 04:32:27;;;;;;;4.47;2.60;;;;;;;17.60;75.99;96401.44;5055053;28;20489;-80
2022/08/03 04:34:55;;;;;;;4.53;2.30;;;;;;;17.61;76.27;96389.25;5054739;28;20106;-79
2022/08/03 04:37:32;;;;;;;3.75;2.47;;;;;;;17.65;76.75;96395.66;5053283;28;20191;-80
2022/08/03 04:40:02;;;;;;;3.92;2.40;;;;;;;17.71;76.59;96396.94;5055316;28;20485;-81
2022/08/03 04:42:31;;;;;;;4.95;2.70;;;;;;;17.71;76.24;96400.50;5055233;28;20048;-80
2022/08/03 04:44:58;;;;;;;6.18;2.75;;;;;;;17.71;76.82;96394.19;5054984;28;20053;-80
2022/08/03 04:47:25;;;;;;;8.38;3.28;;;;;;;17.63;76.50;96393.22;5054266;28;20112;-80
2022/08/03 04:49:52;;;;;;;8.25;3.10;;;;;;;17.64;76.15;96402.28;5054431;28;20064;-76
2022/08/03 04:52:20;;;;;;;5.40;2.50;;;;;;;17.72;75.84;96401.28;5048066;28;20055;-76
2022/08/03 04:54:48;;;;;;;9.98;3.55;;;;;;;17.78;76.25;96404.56;5050391;28;20524;-76
2022/08/03 04:57:14;;;;;;;10.00;5.82;;;;;;;17.73;75.96;96408.41;5050009;28;20052;-76
2022/08/03 04:59:41;;;;;;;5.47;3.33;;;;;;;17.74;75.61;96408.03;5049636;28;20415;-76
2022/08/03 05:02:07;;;;;;;3.85;2.90;;;;;;;17.83;75.16;96401.53;5049618;28;20075;-77
2022/08/03 05:04:34;;;;;;;5.15;3.00;;;;;;;17.90;75.08;96401.66;5058441;28;20128;-79
2022/08/03 05:07:00;;;;;;;3.70;2.67;;;;;;;17.82;74.53;96411.75;5046858;28;20087;-80
2022/08/03 05:09:28;;;;;;;5.85;2.63;;;;;;;17.84;74.97;96411.38;5059139;28;20424;-81
2022/08/03 05:11:54;;;;;;;4.35;2.58;;;;;;;17.92;75.10;96411.16;5059101;28;20515;-81
2022/08/03 05:14:21;;;;;;;3.92;2.75;;;;;;;17.87;74.94;96414.22;5058293;28;20072;-81
2022/08/03 05:16:47;;;;;;;4.68;2.80;;;;;;;17.94;74.47;96414.34;5060069;28;20068;-81
2022/08/03 05:19:14;;;;;;;5.72;2.90;;;;;;;17.96;74.17;96409.28;5058323;28;20558;-81
2022/08/03 05:21:40;;;;;;;4.57;3.08;;;;;;;17.97;74.46;96418.34;5062390;28;20057;-81
2022/08/03 05:24:07;;;;;;;4.47;2.35;;;;;;;18.11;74.29;96413.09;5064427;28;20131;-82
2022/08/03 05:26:35;;;;;;;3.92;2.83;;;;;;;18.24;75.00;96410.97;5066649;28;20064;-80
2022/08/03 05:29:02;;;;;;;5.28;2.45;;;;;;;18.32;75.78;96412.69;5065444;28;20053;-79
2022/08/03 05:31:29;;;;;;;3.67;2.50;;;;;;;18.39;75.14;96412.81;5066201;28;20049;-82
2022/08/03 05:33:56;;;;;;;3.90;2.47;;;;;;;18.45;74.95;96405.84;5066653;28;20091;-84
2022/08/03 05:36:23;;;;;;;5.05;2.58;;;;;;;18.53;75.36;96415.00;5058327;28;20043;-82
2022/08/03 05:38:50;;;;;;;5.28;2.42;;;;;;;18.57;74.73;96415.06;5053151;28;20068;-81
2022/08/03 05:41:16;;;;;;;3.47;2.22;;;;;;;18.37;73.36;96423.41;5068519;28;20045;-82
2022/08/03 05:43:44;;;;;;;4.30;2.25;;;;;;;18.45;73.69;96408.59;5071406;28;20045;-81
2022/08/03 05:46:11;;;;;;;4.22;2.50;;;;;;;18.59;73.43;96410.00;5071337;28;20056;-81
2022/08/03 05:48:37;;;;;;;3.35;2.50;;;;;;;18.64;73.61;96417.97;5068850;28;20060;-82
2022/08/03 05:51:06;;;;;;;6.35;2.50;;;;;;;18.66;73.05;96418.38;5066074;28;20484;-81
2022/08/03 05:53:33;;;;;;;4.85;2.55;;;;;;;18.75;73.04;96424.50;5068738;28;20045;-82
2022/08/03 05:56:00;;;;;;;3.50;2.50;;;;;;;18.86;73.63;96416.38;5067397;28;20037;-82
2022/08/03 05:58:26;;;;;;;3.63;1.92;;;;;;;18.86;73.74;96408.09;5069435;28;20068;-82
2022/08/03 06:00:54;;;;;;;4.32;2.05;;;;;;;18.96;73.68;96418.50;5069156;28;20047;-83
2022/08/03 06:03:20;;;;;;;3.33;2.10;;;;;;;19.09;73.26;96410.81;5071492;28;20098;-81
2022/08/03 06:05:47;;;;;;;2.13;1.65;;;;;;;19.22;73.48;96415.75;5068289;28;20060;-83
2022/08/03 06:08:14;;;;;;;3.95;2.00;;;;;;;19.36;73.92;96412.38;5068127;28;20056;-82
2022/08/03 06:10:47;;;;;;;3.53;2.38;;;;;;;19.22;72.94;96415.75;5067233;28;20045;-83
2022/08/03 06:13:14;;;;;;;3.25;1.92;;;;;;;19.41;73.02;96416.78;5071410;28;20049;-82
2022/08/03 06:15:41;;;;;;;4.03;1.98;;;;;;;19.44;73.90;96414.06;5070220;28;20117;-82
2022/08/03 06:18:09;;;;;;;4.22;1.60;;;;;;;19.60;73.44;96418.66;5072838;28;20065;-83
2022/08/03 06:20:35;;;;;;;3.33;2.00;;;;;;;19.76;73.74;96416.50;5074746;28;20052;-83
2022/08/03 06:23:02;;;;;;;3.00;1.67;;;;;;;19.81;73.29;96418.91;5072673;28;20496;-77
2022/08/03 06:25:29;;;;;;;3.97;2.10;;;;;;;19.78;72.16;96426.00;5073837;28;20059;-82
2022/08/03 06:27:56;;;;;;;3.83;1.80;;;;;;;19.85;71.69;96425.28;5104094;22;20051;-83
2022/08/03 06:30:22;;;;;;;3.72;2.00;;;;;;;19.96;71.56;96425.41;5087332;28;20061;-83
2022/08/03 06:32:49;;;;;;;4.43;2.10;;;;;;;20.12;72.25;96431.53;5072484;28;20056;-83
2022/08/03 06:35:17;;;;;;;4.57;2.08;;;;;;;20.03;71.00;96426.28;5072835;28;20052;-82
2022/08/03 06:37:45;;;;;;;2.97;1.88;;;;;;;20.12;70.95;96428.75;5072378;28;20056;-81
2022/08/03 06:40:12;;;;;;;4.95;2.20;;;;;;;20.31;71.76;96430.56;5071117;28;20048;-81
2022/08/03 06:42:39;;;;;;;6.40;2.00;;;;;;;20.29;70.85;96427.34;5074198;28;20045;-81
2022/08/03 06:45:07;;;;;;;4.63;2.00;;;;;;;20.35;69.98;96431.34;5071925;28;20045;-82
2022/08/03 06:47:41;;;;;;;3.05;1.98;;;;;;;20.53;70.30;96432.38;5070590;28;20056;-82
2022/08/03 06:50:09;;;;;;;6.80;2.97;;;;;;;20.66;69.65;96429.31;5066549;28;20053;-82
2022/08/03 06:52:37;;;;;;;3.38;1.80;;;;;;;20.80;69.50;96434.97;5081510;28;20051;-81
2022/08/03 06:55:05;;;;;;;4.40;1.98;;;;;;;20.80;68.49;96430.25;5088835;28;20047;-82
2022/08/03 06:57:32;;;;;;;7.18;2.10;;;;;;;20.93;68.51;96427.94;5087180;28;20079;-82
2022/08/03 07:00:00;;;;;;;5.45;1.77;;;;;;;21.07;68.13;96428.06;5071525;28;20051;-82
2022/08/03 07:02:31;;;;;;;3.88;1.90;;;;;;;21.21;67.97;96432.13;5090210;28;20587;-83
2022/08/03 07:04:58;;;;;;;2.83;1.77;;;;;;;21.29;67.27;96433.75;5091080;28;20040;-82
2022/08/03 07:07:24;;;;;;;4.15;1.70;;;;;;;21.35;67.25;96429.47;5087941;28;20053;-81
2022/08/03 07:09:54;;;;;;;2.28;1.70;;;;;;;21.32;66.24;96425.50;5090042;28;20045;-81
2022/08/03 07:12:20;;;;;;;2.60;1.80;;;;;;;21.42;65.99;96431.50;5062082;28;20041;-82
2022/08/03 07:14:47;;;;;;;5.68;1.90;;;;;;;21.47;64.76;96429.16;5091574;28;20052;-83
2022/08/03 07:17:14;;;;;;;2.55;1.50;;;;;;;21.61;62.15;96433.97;5073968;28;20051;-81
2022/08/03 07:19:44;;;;;;;3.15;1.85;;;;;;;21.78;62.30;96435.25;5105438;28;20048;-81
2022/08/03 07:22:11;;;;;;;3.55;1.83;;;;;;;21.83;63.13;96432.13;5108204;28;20060;-81
2022/08/03 07:24:38;;;;;;;4.80;1.42;;;;;;;21.93;62.47;96436.91;5110352;28;20127;-82
2022/08/03 07:27:06;;;;;;;6.15;1.60;;;;;;;22.06;61.23;96435.38;5109967;28;20048;-81
2022/08/03 07:29:34;;;;;;;2.47;1.27;;;;;;;22.27;62.28;96426.34;5075748;28;20109;-83
2022/08/03 07:32:01;;;;;;;2.92;1.80;;;;;;;22.35;61.22;96421.63;5111750;28;20052;-83
2022/08/03 07:34:28;;;;;;;4.35;1.65;;;;;;;22.46;60.74;96433.53;5109019;28;20066;-82
2022/08/03 07:36:54;;;;;;;4.03;1.85;;;;;;;22.50;61.27;96423.25;5108188;28;20044;-83
2022/08/03 07:39:21;;;;;;;4.40;1.60;;;;;;;22.73;61.27;96424.84;5109444;28;20069;-82
2022/08/03 07:41:50;;;;;;;3.75;1.77;;;;;;;22.81;60.74;96423.63;5116423;28;20078;-83
2022/08/03 07:44:18;;;;;;;5.13;1.65;;;;;;;22.95;59.25;96420.91;5116279;28;20051;-83
2022/08/03 07:46:44;;;;;;;2.97;1.83;;;;;;;23.13;58.76;96413.38;5116089;28;20044;-83
2022/08/03 07:49:11;;;;;;;4.20;1.85;;;;;;;23.28;59.25;96416.09;5093609;28;20051;-83
2022/08/03 07:51:37;;;;;;;3.60;1.60;;;;;;;23.34;59.04;96417.31;5113737;28;20044;-82
2022/08/03 07:54:04;;;;;;;3.25;1.90;;;;;;;23.45;58.21;96412.50;5113728;28;20055;-82
2022/08/03 07:56:31;;;;;;;3.38;1.48;;;;;;;23.71;62.16;96416.06;5087407;28;20048;-83
2022/08/03 07:58:58;;;;;;;3.50;1.50;;;;;;;23.98;57.47;96411.56;5089191;28;20052;-82
2022/08/03 08:01:26;;;;;;;1.98;1.35;;;;;;;24.61;55.21;96415.22;5075418;28;20063;-83
2022/08/03 08:03:53;;;;;;;2.55;1.42;;;;;;;25.63;52.19;96414.75;5075767;28;20446;-82
2022/08/03 08:06:19;;;;;;;4.45;1.70;;;;;;;26.57;50.41;96408.78;5094415;28;20052;-81
2022/08/03 08:08:46;;;;;;;3.58;1.45;;;;;;;27.06;48.44;96415.59;5076122;28;20074;-82
2022/08/03 08:11:12;;;;;;;2.40;1.58;;;;;;;27.30;46.27;96411.63;5095354;28;20044;-83
2022/08/03 08:13:39;;;;;;;4.68;1.48;;;;;;;27.53;47.36;96412.81;5093948;28;20029;-83
2022/08/03 08:16:06;;;;;;;2.42;1.50;;;;;;;27.52;47.47;96411.25;5096329;28;20040;-79
2022/08/03 08:18:34;;;;;;;4.18;1.55;;;;;;;27.42;46.68;96409.44;5096205;28;20070;-80
2022/08/03 08:21:02;;;;;;;3.42;1.60;;;;;;;27.50;47.30;96402.47;5095062;28;20070;-82
2022/08/03 08:23:29;;;;;;;3.40;1.40;;;;;;;27.73;47.24;96410.06;5115725;28;20028;-81
2022/08/03 08:25:55;;;;;;;4.40;1.52;;;;;;;27.60;45.13;96407.06;5098427;28;20097;-82
2022/08/03 08:28:22;;;;;;;4.90;1.52;;;;;;;27.66;46.61;96401.75;5112324;28;20154;-82
2022/08/03 08:30:49;;;;;;;1.60;1.10;;;;;;;27.90;46.38;96403.31;5099092;28;20098;-82
2022/08/03 08:33:15;;;;;;;2.95;1.30;;;;;;;27.85;45.49;96411.44;5110429;28;20032;-83
2022/08/03 08:35:43;;;;;;;2.50;1.10;;;;;;;27.86;44.15;96407.41;5130011;22;20052;-83
2022/08/03 08:38:10;;;;;;;3.47;1.40;;;;;;;27.93;45.15;96410.88;5093700;28;20037;-78
2022/08/03 08:40:37;;;;;;;2.00;1.38;;;;;;;27.73;45.22;96402.47;5127048;22;20445;-81
2022/08/03 08:43:03;;;;;;;2.20;1.70;;;;;;;27.81;46.36;96394.69;5066562;28;20044;-82
2022/08/03 08:45:30;;;;;;;3.05;1.45;;;;;;;27.97;45.88;96403.16;5092678;28;20052;-83
2022/08/03 08:48:02;;;;;;;4.20;1.65;;;;;;;28.04;43.67;96400.25;5092265;28;20052;-83
2022/08/03 08:50:29;;;;;;;1.77;1.40;;;;;;;28.24;45.77;96400.22;5090804;28;20052;-85
2022/08/03 08:53:02;;;;;;;2.25;1.30;;;;;;;28.19;43.09;96397.13;5091328;28;20332;-86
2022/08/03 08:55:29;;;;;;;2.75;1.10;;;;;;;28.28;43.81;96400.91;5093400;28;20083;-86
2022/08/03 08:57:59;;;;;;;1.77;1.38;;;;;;;28.44;44.18;96399.41;5095207;28;20070;-84
2022/08/03 09:00:25;;;;;;;5.35;1.20;;;;;;;28.65;44.78;96396.09;5094418;28;20070;-85
2022/08/03 09:02:52;;;;;;;3.80;1.40;;;;;;;28.75;43.76;96395.06;5094666;28;20052;-87
2022/08/03 09:05:19;;;;;;;3.00;1.48;;;;;;;28.79;45.10;96395.00;5093607;28;20048;-86
2022/08/03 09:07:48;;;;;;;2.03;1.45;;;;;;;28.72;42.76;96393.16;5094609;28;20062;-87
2022/08/03 09:10:18;;;;;;;2.63;1.50;;;;;;;28.93;44.07;96388.25;5093991;28;20121;-85
2022/08/03 09:12:46;;;;;;;2.60;1.60;;;;;;;28.94;42.10;96385.03;5094156;28;20054;-88
2022/08/03 09:15:18;;;;;;;4.00;1.50;;;;;;;28.94;41.98;96389.88;5093694;28;20052;-87
2022/08/03 09:17:46;;;;;;;4.15;1.48;;;;;;;29.04;42.05;96386.00;5094501;28;20051;-87
2022/08/03 09:20:13;;;;;;;3.75;1.38;;;;;;;29.05;39.92;96391.16;5090950;28;20106;-86
2022/08/03 09:22:53;;;;;;;4.43;1.67;;;;;;;29.08;40.91;96384.69;5094099;28;20071;-85
2022/08/03 09:25:27;;;;;;;3.80;1.52;;;;;;;29.15;42.11;96388.53;5093102;28;20048;-85
2022/08/03 09:27:53;;;;;;;3.47;1.38;;;;;;;29.18;39.98;96388.44;5094539;28;20068;-85
2022/08/03 09:30:20;;;;;;;5.50;1.73;;;;;;;29.07;38.97;96385.91;5093035;28;20482;-86
2022/08/03 09:32:47;;;;;;;3.10;1.55;;;;;;;29.14;40.95;96384.94;5093612;28;20044;-86
2022/08/03 09:35:14;;;;;;;4.55;1.50;;;;;;;29.23;39.72;96382.28;5093291;28;20391;-84
2022/08/03 09:37:41;;;;;;;2.78;1.40;;;;;;;29.35;38.52;96387.19;5093528;28;20044;-85
2022/08/03 09:40:08;;;;;;;3.65;1.30;;;;;;;29.41;40.88;96386.66;5092518;28;20052;-84
2022/08/03 09:42:37;;;;;;;3.65;1.55;;;;;;;29.35;37.06;96389.22;5092943;28;20104;-86
2022/08/03 09:45:05;;;;;;;4.00;1.55;;;;;;;29.53;38.66;96385.91;5092943;28;20044;-86
2022/08/03 09:47:32;;;;;;;2.63;1.45;;;;;;;29.42;36.61;96386.22;5093520;28;20048;-87
2022/08/03 09:50:01;;;;;;;3.45;1.75;;;;;;;29.57;38.70;96389.44;5099825;28;20055;-85
2022/08/03 09:52:33;;;;;;;2.47;1.30;;;;;;;29.51;35.30;96396.81;5101232;28;20048;-85
2022/08/03 09:55:00;;;;;;;2.28;1.50;;;;;;;29.57;38.16;96379.00;5093000;28;20044;-86
2022/08/03 09:57:29;;;;;;;2.50;1.40;;;;;;;29.65;39.08;96382.41;5091424;28;20067;-85
2022/08/03 10:00:09;;;;;;;2.53;1.45;;;;;;;29.53;36.30;96380.31;5092870;28;20132;-88
2022/08/03 10:02:36;;;;;;;6.05;1.70;;;;;;;29.46;36.44;96386.13;5093464;28;20387;-85
2022/08/03 10:05:03;;;;;;;3.80;1.50;;;;;;;29.47;36.43;96379.28;5092995;28;20507;-86
2022/08/03 10:07:30;;;;;;;4.90;1.50;;;;;;;29.51;36.90;96383.56;5092636;28;20075;-86
2022/08/03 10:09:59;;;;;;;2.13;1.45;;;;;;;29.61;40.01;96379.72;5093057;28;20162;-87
2022/08/03 10:12:26;;;;;;;2.42;1.40;;;;;;;29.57;37.87;96386.66;5093041;28;20051;-86
2022/08/03 10:14:53;;;;;;;3.45;1.38;;;;;;;29.63;36.85;96382.06;5091619;28;20048;-85
2022/08/03 10:17:22;;;;;;;2.17;1.23;;;;;;;29.70;35.68;96373.44;5092335;28;20048;-86
2022/08/03 10:19:49;;;;;;;2.05;1.40;;;;;;;29.59;36.41;96373.75;5093032;28;20050;-87
2022/08/03 10:22:19;;;;;;;3.03;1.40;;;;;;;29.53;35.80;96377.50;5092177;28;20040;-86
2022/08/03 10:24:53;;;;;;;1.48;1.08;;;;;;;29.59;37.26;96370.16;5091679;28;20044;-87
2022/08/03 10:27:22;;;;;;;3.13;1.58;;;;;;;29.62;36.09;96372.06;5092290;28;20090;-88
2022/08/03 10:29:53;;;;;;;2.10;1.25;;;;;;;29.68;35.78;96373.09;5092403;28;20051;-86
2022/08/03 10:32:34;;;;;;;1.55;1.13;;;;;;;29.72;34.46;96368.19;5092715;28;20071;-83
2022/08/03 10:35:04;;;;;;;5.15;1.40;;;;;;;29.82;37.33;96367.09;5100576;28;20052;-86
2022/08/03 10:37:34;;;;;;;2.45;1.13;;;;;;;29.93;36.16;96363.19;5098422;28;20048;-85
2022/08/03 10:40:02;;;;;;;3.00;1.45;;;;;;;29.84;35.03;96361.81;5096959;28;20106;-86
2022/08/03 10:42:31;;;;;;;2.60;1.70;;;;;;;29.87;33.24;96358.13;5092772;28;20084;-86
2022/08/03 10:45:04;;;;;;;2.15;1.17;;;;;;;29.97;34.70;96358.28;5092148;28;20452;-85
2022/08/03 10:47:34;;;;;;;2.75;1.50;;;;;;;29.85;33.39;96346.53;5092271;28;20044;-86
2022/08/03 10:50:01;;;;;;;2.40;1.38;;;;;;;29.81;34.74;96351.50;5090883;28;20059;-85
2022/08/03 10:52:28;;;;;;;3.90;1.20;;;;;;;29.92;33.78;96347.59;5071657;28;20462;-86
2022/08/03 10:57:50;;;;;;;2.90;1.25;;;;;;;29.88;33.30;96351.28;5072076;28;20506;-86
2022/08/03 11:00:18;;;;;;;1.83;1.33;;;;;;;29.86;32.25;96348.13;5071557;28;20052;-86
2022/08/03 11:03:08;;;;;;;2.35;1.38;;;;;;;29.85;30.39;96343.72;5071676;28;20048;-83
2022/08/03 11:05:40;;;;;;;3.00;1.70;;;;;;;29.89;31.79;96336.00;5072010;28;20075;-87
2022/08/03 11:08:21;;;;;;;3.30;1.55;;;;;;;29.79;32.53;96333.50;5071667;28;20052;-85
2022/08/03 11:10:48;;;;;;;1.55;1.10;;;;;;;29.93;34.22;96335.13;5071908;28;20048;-86
2022/08/03 11:13:17;;;;;;;1.77;1.20;;;;;;;29.92;32.25;96333.56;5070976;28;20079;-87
2022/08/03 11:15:46;;;;;;;3.25;1.40;;;;;;;29.93;34.63;96321.09;5071231;28;20554;-85
2022/08/03 11:18:14;;;;;;;1.50;1.10;;;;;;;30.02;35.25;96329.66;5069913;28;20052;-88
2022/08/03 11:20:46;;;;;;;6.47;1.23;;;;;;;30.00;33.74;96329.28;5078087;28;20044;-88
2022/08/03 11:23:13;;;;;;;4.78;1.52;;;;;;;29.96;33.00;96328.59;5090950;28;20079;-85
2022/08/03 11:26:14;;;;;;;5.63;1.25;;;;;;;29.94;32.70;96325.47;5091140;28;20041;-87
2022/08/03 11:28:42;;;;;;;1.40;1.20;;;;;;;29.95;35.97;96318.59;5091038;28;20047;-87
2022/08/03 11:31:47;;;;;;;2.03;1.20;;;;;;;29.93;34.59;96324.69;5090768;28;20048;-87
2022/08/03 11:34:16;;;;;;;2.42;1.20;;;;;;;29.98;34.08;96331.75;5090942;28;20146;-88
2022/08/03 11:37:20;;;;;;;3.13;1.25;;;;;;;30.05;33.78;96323.13;5091229;28;20052;-87
2022/08/03 11:39:49;;;;;;;4.32;1.40;;;;;;;29.92;33.46;96327.94;5090512;28;20048;-88
2022/08/03 11:42:38;;;;;;;2.10;1.23;;;;;;;30.01;35.34;96322.44;5090832;28;20044;-88
2022/08/03 11:45:07;;;;;;;3.47;1.50;;;;;;;29.93;33.78;96318.28;5090757;28;20048;-88
2022/08/03 11:47:38;;;;;;;2.45;1.52;;;;;;;30.05;35.95;96323.91;5091347;28;20411;-88
2022/08/03 11:50:07;;;;;;;1.98;1.30;;;;;;;30.09;34.66;96323.81;5090457;28;20518;-86
2022/08/03 11:52:36;;;;;;;1.50;1.20;;;;;;;30.08;34.67;96320.22;5070401;28;20055;-86